x

Halibut Bank (46146) Wave Buoy

10:00am - Tue 30th Aug 2016 All times are PDT. -7 hours from GMT.

  • Sig Wave height 2.6ft
  • Peak Period 4s
  • Wind
    18mph, 22mph gusts
  • Sea Temp 62°f
  • Air Temp 61°f
  • Sea Pressure 1015.9mb
  • Halibut Bank
  • Halibut Bank

More Historic Weather Station data

Upgrade to MSW Pro to gain access to the past 30 days of data for over 8000 Wavebouys and Weather Stations around the globe.

Join Pro

Comparision Forecast

View Surf forecast
   
Tue 08/30 10:00am 2.5ft 4s 18 22 mph 1015.9mb 62f 61f
9:00am 2.5ft 4s 22 25 mph 1015.6mb 62f 61f
8:00am 2.5ft 4s 20 25 mph 1015.6mb 62f 61f
7:00am 2ft 4s 20 25 mph 1015.4mb 62f 61f
6:00am 1.3ft 3s 20 22 mph 1015mb 62f 60f
5:00am 0.7ft 2s 13 18 mph 1014.9mb 62f 61f
4:00am 0.3ft 2s 11 13 mph 1015mb 62f 62f
3:00am 0.3ft 2s 9
mph
1014.9mb 62f 62f
2:00am 0.3ft 2s 9 11 mph 1014.8mb 62f 63f
1:00am 0.3ft 7s 7 9 mph 1014.8mb 62f 62f
12:00am 0.3ft 2s 7
mph
1014.8mb 62f 63f
Mon 08/29 11:00pm 0.3ft 5s 4 7 mph 1014.8mb 62f 63f
10:00pm 0.3ft 2s 4
mph
1014.8mb 62f 63f
9:00pm 0.7ft 3s 7
mph
1014.2mb 62f 63f
8:00pm 0.3ft 3s 4
mph
1014.4mb 62f 62f
7:00pm 0.7ft 3s 4
mph
1014.1mb 63f 62f
6:00pm 0.7ft 3s 2 7 mph 1014.4mb 63f 63f
5:00pm 0.7ft 2s 4 7 mph 1014.2mb 62f 63f
4:00pm 0.7ft 3s 4 7 mph 1014.7mb 62f 63f
3:00pm 1ft 3s 11
mph
1014.8mb 62f 62f
2:00pm 1ft 3s 11 13 mph 1015.5mb 61f 62f
1:00pm 1.3ft 3s 11 13 mph 1016mb 62f 60f
12:00pm 1.3ft 3s 13 16 mph 1016.5mb 61f 60f
11:00am 1.3ft 3s 13 16 mph 1017.3mb 60f 59f
10:00am 1.3ft 2s 20 22 mph 1017mb 61f 59f
9:00am 1ft 2s 16 18 mph 1017.5mb 60f 60f
8:00am 0.3ft 2s 13 16 mph 1017.4mb 60f 61f
7:00am 0.3ft 3s 9 11 mph 1017.5mb 60f 61f
6:00am 0.3ft 3s 4
mph
1017.5mb 61f 60f
5:00am 0.3ft 3s 4 7 mph 1017.4mb 61f 61f
4:00am 0.3ft 3s 2
mph
1017.3mb 61f 61f
3:00am 0.3ft 3s 4 7 mph 1016.9mb 60f 61f
2:00am 0.3ft 3s 2
mph
1017.3mb 60f 61f
1:00am 0.3ft 4s 2 4 mph 1017.5mb 60f 61f
12:00am 0.7ft 3s 9 11 mph 1017.5mb 61f 61f
Sun 08/28 11:00pm 0.7ft 3s 7 9 mph 1017.5mb 61f 61f
10:00pm 1ft 3s 7 9 mph 1017.5mb 61f 61f
9:00pm 1.3ft 3s 9
mph
1018mb 60f 61f
8:00pm 1.6ft 3s 11
mph
1018.1mb 60f 61f
7:00pm 1.6ft 3s 13 18 mph 1018.2mb 61f 61f
6:00pm 2ft 3s 16 20 mph 1018.2mb 61f 61f
5:00pm 1.6ft 3s 16 18 mph 1018.5mb 61f 61f
4:00pm 1.6ft 4s 13 16 mph 1018.4mb 61f 61f
3:00pm 1.6ft 4s 16 18 mph 1018.7mb 61f 61f
2:00pm 2ft 4s 16 18 mph 1018.7mb 61f 61f
1:00pm 2.5ft 4s 18 20 mph 1018.6mb 62f 61f
12:00pm 2.5ft 4s 18 22 mph 1018.7mb 62f 61f
11:00am 2.5ft 4s 18 20 mph 1018.7mb 61f 61f
10:00am 2.5ft 4s 22 25 mph 1017.9mb 62f 61f
9:00am 3ft 4s 18 22 mph 1017.9mb 62f 61f
8:00am 3ft 4s 22 25 mph 1017.7mb 62f 60f
7:00am 3ft 4s 22 27 mph 1016.9mb 62f 60f
6:00am 3ft 4s 22 27 mph 1016.1mb 63f 60f
5:00am 3ft 4s 25 27 mph 1015.6mb 62f 60f
4:00am 2.5ft 4s 22 27 mph 1015.1mb 62f 60f
3:00am 3ft 4s 22 27 mph 1014.4mb 62f 61f
2:00am 3ft 4s 22 27 mph 1014mb 62f 62f
1:00am 2.5ft 4s 20 27 mph 1013.5mb 62f 62f
12:00am 1.6ft 4s 16 20 mph 1013.2mb 63f 64f
Sat 08/27 11:00pm 1.3ft 3s 16 18 mph 1012.6mb 62f 64f
10:00pm 1ft 3s 13 16 mph 1012.3mb 62f 64f
9:00pm 1ft 3s 9 13 mph 1012mb 62f 65f
8:00pm 1ft 3s 4
mph
1011.2mb 63f 64f
7:00pm 0.7ft 3s 4
mph
1011.1mb 63f 64f
6:00pm 0.7ft 3s 4 7 mph 1010.7mb 64f 64f
5:00pm 0.7ft 4s 4 7 mph 1010.3mb 63f 64f
4:00pm 1.3ft 3s 9 13 mph 1009.9mb 63f 65f
3:00pm 1.3ft 4s 4 7 mph 1009.5mb 63f 65f
2:00pm 1.6ft 4s 9 11 mph 1009.1mb 62f 64f
1:00pm 1.6ft 4s 7 9 mph 1008.8mb 62f 64f
12:00pm 2.5ft 4s 11 13 mph 1008.5mb 62f 64f
11:00am 2.5ft 4s 13 18 mph 1008.1mb 61f 62f
10:00am 2.5ft 4s 18 22 mph 1007.9mb 61f 62f
9:00am 3ft 4s 20 25 mph 1007.5mb 61f 63f
8:00am 3.5ft 4s 25 29 mph 1006.9mb 61f 64f
7:00am 3ft 4s 25 29 mph 1006.6mb 62f 64f
6:00am 3ft 4s 22 29 mph 1006.1mb 63f 64f
5:00am 2.5ft 4s 25 31 mph 1005.8mb 65f 65f
4:00am 2.5ft 4s 25 29 mph 1005.9mb 65f 66f
3:00am 2.5ft 4s 22 27 mph 1006mb 65f 66f
2:00am 2.5ft 4s 22 25 mph 1006.2mb 64f 67f
1:00am 1.6ft 3s 20 25 mph 1006.7mb 66f 67f
12:00am 1ft 3s 20 25 mph 1007.1mb 67f 69f
Fri 08/26 11:00pm 0.3ft 6s 13 16 mph 1007.7mb 67f 69f
10:00pm 0.3ft 2s 2 4 mph 1008mb 67f 69f
9:00pm 0.3ft 5s 7
mph
1008.2mb 68f 70f
8:00pm 0.3ft 6s 4
mph
1008.5mb 67f 70f
7:00pm 0.3ft 3s 2
mph
1008.6mb 69f 70f